Time;durP1;ratioP1;P1;durP2;ratioP2;P2;SDS_P1;SDS_P2;PMS_P1;PMS_P2;Temp;Humidity;BMP_temperature;BMP_pressure;BME280_temperature;BME280_humidity;BME280_pressure;Samples;Min_cycle;Max_cycle;Signal;HPM_P1;HPM_P2
2023/08/24 00:00:13;;;;;;;13.47;9.53;;;;;;;;;;4991182;28;20045;-56
2023/08/24 00:02:39;;;;;;;12.00;9.40;;;;;;;;;;5005264;28;20276;-57
2023/08/24 00:05:05;;;;;;;11.77;10.00;;;;;;;;;;5023077;28;20044;-56
2023/08/24 00:07:30;;;;;;;13.23;9.95;;;;;;;;;;5008256;28;20046;-55
2023/08/24 00:09:55;;;;;;;15.80;10.37;;;;;;;;;;4974749;28;20034;-56
2023/08/24 00:12:21;;;;;;;12.07;10.47;;;;;;;;;;5008512;28;20288;-56
2023/08/24 00:14:46;;;;;;;12.17;9.43;;;;;;;;;;4994228;28;20832;-55
2023/08/24 00:17:12;;;;;;;12.68;10.65;;;;;;;;;;5009985;28;20269;-55
2023/08/24 00:19:37;;;;;;;15.30;9.77;;;;;;;;;;4991107;28;20080;-56
2023/08/24 00:22:02;;;;;;;13.20;9.57;;;;;;;;;;4990389;28;20272;-55
2023/08/24 00:24:27;;;;;;;12.27;10.20;;;;;;;;;;5026309;28;20280;-55
2023/08/24 00:26:53;;;;;;;13.65;9.77;;;;;;;;;;5027812;28;20434;-55
2023/08/24 00:29:18;;;;;;;13.97;9.60;;;;;;;;;;5028406;28;20079;-56
2023/08/24 00:31:43;;;;;;;14.97;10.27;;;;;;;;;;4994208;28;20065;-55
2023/08/24 00:34:09;;;;;;;12.40;9.63;;;;;;;;;;5008162;28;20057;-55
2023/08/24 00:36:34;;;;;;;12.15;10.23;;;;;;;;;;5024218;28;20435;-56
2023/08/24 00:38:59;;;;;;;12.38;10.00;;;;;;;;;;5027119;28;20065;-56
2023/08/24 00:41:25;;;;;;;14.00;10.23;;;;;;;;;;5021960;28;20038;-55
2023/08/24 00:43:50;;;;;;;12.18;10.30;;;;;;;;;;5007536;28;20052;-56
2023/08/24 00:46:15;;;;;;;14.95;9.98;;;;;;;;;;5007598;28;20057;-56
2023/08/24 00:48:40;;;;;;;16.53;10.83;;;;;;;;;;4989887;28;20066;-57
2023/08/24 00:51:06;;;;;;;13.03;10.07;;;;;;;;;;5008372;28;20285;-55
2023/08/24 00:53:31;;;;;;;13.97;10.50;;;;;;;;;;5014273;28;20719;-56
2023/08/24 00:55:56;;;;;;;13.67;10.60;;;;;;;;;;5007330;28;20272;-56
2023/08/24 00:58:21;;;;;;;13.65;10.55;;;;;;;;;;5026897;28;20041;-56
2023/08/24 01:00:48;;;;;;;12.63;10.23;;;;;;;;;;5042354;28;20041;-56
2023/08/24 01:03:13;;;;;;;12.52;10.57;;;;;;;;;;5025686;28;20860;-56
2023/08/24 01:05:39;;;;;;;12.23;10.40;;;;;;;;;;5008914;28;20040;-55
2023/08/24 01:08:04;;;;;;;12.83;10.63;;;;;;;;;;5027720;28;20041;-56
2023/08/24 01:10:30;;;;;;;12.68;10.85;;;;;;;;;;5008603;28;21129;-55
2023/08/24 01:13:06;;;;;;;12.85;10.18;;;;;;;;;;4996788;28;20112;-56
2023/08/24 01:15:33;;;;;;;13.65;10.32;;;;;;;;;;5008441;28;20046;-56
2023/08/24 01:17:59;;;;;;;11.55;10.35;;;;;;;;;;5026814;28;20068;-55
2023/08/24 01:20:24;;;;;;;15.32;10.60;;;;;;;;;;5009015;28;20037;-56
2023/08/24 01:23:08;;;;;;;11.95;10.65;;;;;;;;;;5018732;28;20120;-55
2023/08/24 01:25:53;;;;;;;12.43;10.75;;;;;;;;;;5025872;28;20359;-54
2023/08/24 01:28:18;;;;;;;15.18;11.32;;;;;;;;;;5026667;28;20127;-55
2023/08/24 01:30:43;;;;;;;18.52;10.68;;;;;;;;;;5008690;28;20545;-54
2023/08/24 01:33:11;;;;;;;14.30;10.97;;;;;;;;;;4993295;28;20054;-54
2023/08/24 01:35:37;;;;;;;13.95;10.88;;;;;;;;;;5007046;28;20479;-54
2023/08/24 01:38:03;;;;;;;12.98;10.25;;;;;;;;;;5016164;28;20136;-56
2023/08/24 01:40:31;;;;;;;15.77;11.02;;;;;;;;;;5025483;28;20115;-54
2023/08/24 01:43:02;;;;;;;13.23;11.23;;;;;;;;;;5012974;28;20037;-54
2023/08/24 01:45:29;;;;;;;14.57;10.90;;;;;;;;;;5008821;28;20104;-55
2023/08/24 01:47:54;;;;;;;12.90;10.13;;;;;;;;;;4996760;28;20034;-55
2023/08/24 01:50:19;;;;;;;15.40;10.20;;;;;;;;;;4992290;28;20401;-55
2023/08/24 01:52:45;;;;;;;12.40;10.43;;;;;;;;;;5010465;28;20057;-54
2023/08/24 01:55:11;;;;;;;13.30;10.33;;;;;;;;;;5025822;28;20328;-55
2023/08/24 01:57:37;;;;;;;14.40;10.68;;;;;;;;;;5007977;28;20280;-54
2023/08/24 02:00:06;;;;;;;12.98;10.60;;;;;;;;;;5026335;28;20052;-55
2023/08/24 02:02:33;;;;;;;12.70;10.82;;;;;;;;;;4997606;28;20043;-54
2023/08/24 02:04:58;;;;;;;15.90;10.77;;;;;;;;;;5006864;28;20038;-54
2023/08/24 02:07:23;;;;;;;12.33;10.60;;;;;;;;;;5006331;28;20033;-54
2023/08/24 02:09:48;;;;;;;13.70;10.23;;;;;;;;;;5006635;28;20834;-54
2023/08/24 02:12:13;;;;;;;12.53;10.50;;;;;;;;;;5006433;28;20505;-55
2023/08/24 02:14:39;;;;;;;14.97;11.13;;;;;;;;;;5007282;28;21113;-54
2023/08/24 02:17:04;;;;;;;13.20;11.03;;;;;;;;;;5021808;28;20688;-55
2023/08/24 02:19:29;;;;;;;12.90;10.95;;;;;;;;;;5007777;28;20311;-53
2023/08/24 02:21:54;;;;;;;14.83;10.90;;;;;;;;;;5020828;28;20609;-54
2023/08/24 02:24:20;;;;;;;15.93;11.73;;;;;;;;;;5022405;28;20276;-54
2023/08/24 02:26:45;;;;;;;12.63;11.00;;;;;;;;;;5024845;28;20044;-55
2023/08/24 02:29:10;;;;;;;18.50;11.50;;;;;;;;;;5025318;28;20053;-55
2023/08/24 02:31:35;;;;;;;15.63;10.77;;;;;;;;;;5025609;28;20288;-54
2023/08/24 02:34:02;;;;;;;17.27;11.50;;;;;;;;;;5019993;28;20280;-54
2023/08/24 02:36:28;;;;;;;15.35;11.50;;;;;;;;;;5025060;28;20564;-54
2023/08/24 02:38:53;;;;;;;14.25;11.68;;;;;;;;;;5025384;28;20030;-54
2023/08/24 02:41:19;;;;;;;15.80;11.77;;;;;;;;;;5025462;28;20040;-54
2023/08/24 02:43:44;;;;;;;13.80;12.07;;;;;;;;;;5019753;28;20073;-53
2023/08/24 02:46:10;;;;;;;15.55;12.02;;;;;;;;;;5025216;28;20426;-54
2023/08/24 02:48:35;;;;;;;16.05;11.00;;;;;;;;;;5020466;28;20037;-55
2023/08/24 02:51:01;;;;;;;15.93;11.98;;;;;;;;;;4986260;28;20043;-55
2023/08/24 02:53:26;;;;;;;13.30;11.90;;;;;;;;;;5009329;28;20069;-55
2023/08/24 02:55:52;;;;;;;16.23;11.40;;;;;;;;;;5005511;28;20029;-54
2023/08/24 02:58:18;;;;;;;14.63;10.93;;;;;;;;;;4987717;28;20119;-54
2023/08/24 03:00:43;;;;;;;15.73;11.60;;;;;;;;;;5005493;28;20049;-54
2023/08/24 03:03:08;;;;;;;15.53;11.53;;;;;;;;;;5018925;28;20037;-54
2023/08/24 03:05:33;;;;;;;14.57;11.27;;;;;;;;;;5023226;28;20041;-55
2023/08/24 03:07:59;;;;;;;12.97;10.70;;;;;;;;;;5004931;28;20042;-55
2023/08/24 03:10:24;;;;;;;12.80;11.07;;;;;;;;;;4988275;28;20346;-54
2023/08/24 03:12:49;;;;;;;12.90;11.13;;;;;;;;;;4987772;28;20090;-54
2023/08/24 03:15:15;;;;;;;15.60;11.68;;;;;;;;;;5020635;28;20049;-56
2023/08/24 03:17:40;;;;;;;15.93;11.68;;;;;;;;;;5024070;28;20153;-56
2023/08/24 03:20:06;;;;;;;13.93;11.55;;;;;;;;;;5006942;28;20073;-55
2023/08/24 03:22:31;;;;;;;15.98;10.82;;;;;;;;;;5021934;28;20045;-55
2023/08/24 03:24:56;;;;;;;15.20;11.30;;;;;;;;;;5010356;28;20567;-54
2023/08/24 03:27:21;;;;;;;14.60;11.67;;;;;;;;;;4999906;28;20677;-55
2023/08/24 03:29:47;;;;;;;12.87;11.17;;;;;;;;;;5025274;28;20299;-55
2023/08/24 03:32:12;;;;;;;14.75;11.40;;;;;;;;;;5024457;28;20385;-55
2023/08/24 03:34:37;;;;;;;16.60;11.33;;;;;;;;;;5011915;28;20034;-56
2023/08/24 03:37:03;;;;;;;14.75;12.15;;;;;;;;;;5004652;28;20364;-55
2023/08/24 03:39:28;;;;;;;15.40;11.77;;;;;;;;;;5021598;28;20499;-55
2023/08/24 03:41:54;;;;;;;13.52;11.55;;;;;;;;;;5003465;28;20490;-55
2023/08/24 03:44:19;;;;;;;16.90;12.10;;;;;;;;;;4993321;28;20034;-55
2023/08/24 03:46:44;;;;;;;16.17;12.02;;;;;;;;;;5004884;28;20033;-54
2023/08/24 03:49:09;;;;;;;13.00;11.50;;;;;;;;;;5004541;28;21071;-54
2023/08/24 03:51:35;;;;;;;17.20;12.60;;;;;;;;;;5005033;28;20462;-56
2023/08/24 03:54:00;;;;;;;16.03;11.83;;;;;;;;;;5011131;28;20594;-55
2023/08/24 03:56:25;;;;;;;13.53;11.40;;;;;;;;;;5010832;28;20677;-55
2023/08/24 03:58:50;;;;;;;17.13;12.47;;;;;;;;;;5021973;28;20312;-55
2023/08/24 04:01:16;;;;;;;15.77;12.70;;;;;;;;;;5029589;28;20418;-55
2023/08/24 04:03:41;;;;;;;21.43;12.80;;;;;;;;;;5010957;28;20394;-55
2023/08/24 04:06:07;;;;;;;17.15;13.32;;;;;;;;;;5017936;28;20310;-56
2023/08/24 04:08:32;;;;;;;16.42;12.70;;;;;;;;;;5023252;28;20040;-54
2023/08/24 04:10:57;;;;;;;17.23;13.73;;;;;;;;;;5016876;28;20508;-55
2023/08/24 04:13:23;;;;;;;18.07;13.10;;;;;;;;;;4986848;28;20289;-55
2023/08/24 04:15:48;;;;;;;16.37;12.43;;;;;;;;;;5003826;28;20095;-55
2023/08/24 04:18:13;;;;;;;19.40;13.63;;;;;;;;;;5023989;28;20283;-55
2023/08/24 04:20:38;;;;;;;16.27;12.70;;;;;;;;;;5004621;28;20050;-55
2023/08/24 04:23:04;;;;;;;17.25;13.05;;;;;;;;;;5002978;28;20164;-54
2023/08/24 04:25:30;;;;;;;18.47;13.83;;;;;;;;;;5013679;28;20090;-56
2023/08/24 04:27:55;;;;;;;18.77;14.27;;;;;;;;;;5006928;28;20292;-57
2023/08/24 04:30:21;;;;;;;20.37;14.30;;;;;;;;;;4988938;28;20395;-56
2023/08/24 04:32:46;;;;;;;22.05;14.60;;;;;;;;;;4991415;28;20292;-61
2023/08/24 04:35:12;;;;;;;16.90;13.13;;;;;;;;;;4994900;28;20527;-59
2023/08/24 04:37:38;;;;;;;19.98;14.55;;;;;;;;;;4998366;28;20119;-60
2023/08/24 04:40:04;;;;;;;16.15;12.45;;;;;;;;;;5008133;28;20128;-60
2023/08/24 04:42:29;;;;;;;18.55;13.95;;;;;;;;;;4978928;28;20520;-60
2023/08/24 04:44:54;;;;;;;18.20;13.63;;;;;;;;;;4990647;28;20081;-61
2023/08/24 04:47:19;;;;;;;18.40;14.10;;;;;;;;;;4990289;28;20065;-59
2023/08/24 04:49:45;;;;;;;20.13;13.50;;;;;;;;;;5006927;28;21115;-61
2023/08/24 04:52:10;;;;;;;17.02;13.68;;;;;;;;;;4995692;28;20615;-59
2023/08/24 04:54:35;;;;;;;19.80;13.57;;;;;;;;;;4983786;28;20062;-60
2023/08/24 04:57:00;;;;;;;22.60;15.43;;;;;;;;;;4998135;28;20785;-60
2023/08/24 04:59:26;;;;;;;23.77;16.20;;;;;;;;;;4982139;28;20386;-60
2023/08/24 05:01:51;;;;;;;22.30;15.77;;;;;;;;;;4982023;28;20030;-60
2023/08/24 05:04:16;;;;;;;21.98;16.90;;;;;;;;;;4991980;28;20042;-60
2023/08/24 05:06:41;;;;;;;21.93;15.43;;;;;;;;;;4993002;28;20518;-59
2023/08/24 05:09:08;;;;;;;21.83;16.07;;;;;;;;;;4991853;28;20321;-58
2023/08/24 05:11:33;;;;;;;22.20;16.25;;;;;;;;;;4978291;28;20111;-59
2023/08/24 05:13:58;;;;;;;22.25;15.25;;;;;;;;;;5009564;28;20042;-59
2023/08/24 05:16:24;;;;;;;21.43;15.37;;;;;;;;;;4993435;28;20484;-60
2023/08/24 05:18:49;;;;;;;21.38;15.52;;;;;;;;;;4991216;28;20416;-60
2023/08/24 05:21:14;;;;;;;20.27;14.90;;;;;;;;;;4990825;28;20523;-59
2023/08/24 05:23:40;;;;;;;20.42;15.20;;;;;;;;;;4990211;28;20863;-58
2023/08/24 05:26:05;;;;;;;21.23;14.50;;;;;;;;;;4991043;28;20440;-58
2023/08/24 05:28:31;;;;;;;22.58;15.27;;;;;;;;;;4991737;28;20308;-58
2023/08/24 05:30:56;;;;;;;24.10;15.30;;;;;;;;;;5007224;28;20030;-58
2023/08/24 05:33:22;;;;;;;24.13;15.32;;;;;;;;;;4995581;28;20046;-58
2023/08/24 05:35:47;;;;;;;24.13;15.40;;;;;;;;;;4989529;28;20030;-56
2023/08/24 05:38:13;;;;;;;19.13;14.43;;;;;;;;;;4992899;28;20268;-58
2023/08/24 05:40:39;;;;;;;19.73;14.93;;;;;;;;;;4974889;28;20054;-56
2023/08/24 05:43:04;;;;;;;20.73;15.32;;;;;;;;;;4994305;28;20043;-56
2023/08/24 05:45:29;;;;;;;22.55;14.70;;;;;;;;;;4994250;28;20033;-57
2023/08/24 05:47:54;;;;;;;20.10;14.80;;;;;;;;;;4991530;28;20492;-56
2023/08/24 05:50:20;;;;;;;22.30;15.20;;;;;;;;;;4992557;28;20424;-56
2023/08/24 05:52:45;;;;;;;22.70;15.53;;;;;;;;;;4992081;28;20494;-59
2023/08/24 05:55:10;;;;;;;22.47;15.73;;;;;;;;;;4991028;28;20047;-56
2023/08/24 05:57:35;;;;;;;19.93;14.27;;;;;;;;;;4994211;28;20285;-56
2023/08/24 06:00:00;;;;;;;23.30;14.95;;;;;;;;;;4993464;28;20304;-56
2023/08/24 06:02:26;;;;;;;23.67;15.57;;;;;;;;;;4989859;28;20376;-57
2023/08/24 06:04:51;;;;;;;20.17;14.57;;;;;;;;;;4988777;28;20493;-56
2023/08/24 06:07:16;;;;;;;23.80;15.63;;;;;;;;;;4988548;28;20471;-56
2023/08/24 06:09:42;;;;;;;21.77;15.45;;;;;;;;;;4986739;28;20463;-57
2023/08/24 06:12:07;;;;;;;21.70;14.75;;;;;;;;;;4990471;28;20039;-56
2023/08/24 06:14:32;;;;;;;21.73;15.90;;;;;;;;;;4992597;28;20144;-57
2023/08/24 06:16:58;;;;;;;19.83;14.67;;;;;;;;;;4987790;28;20038;-56
2023/08/24 06:19:23;;;;;;;18.03;14.10;;;;;;;;;;4991221;28;20840;-56
2023/08/24 06:21:48;;;;;;;20.35;14.32;;;;;;;;;;4986447;28;20544;-56
2023/08/24 06:24:14;;;;;;;19.17;13.93;;;;;;;;;;4990881;28;20058;-56
2023/08/24 06:26:39;;;;;;;19.85;14.27;;;;;;;;;;4998853;28;20038;-57
2023/08/24 06:29:04;;;;;;;22.23;14.53;;;;;;;;;;4988698;28;20500;-56
2023/08/24 06:31:31;;;;;;;19.90;12.60;;;;;;;;;;4991690;28;20320;-57
2023/08/24 06:33:56;;;;;;;18.05;12.45;;;;;;;;;;4990775;28;20677;-57
2023/08/24 06:36:21;;;;;;;16.73;11.98;;;;;;;;;;4988065;28;20030;-57
2023/08/24 06:38:47;;;;;;;15.70;11.82;;;;;;;;;;4987018;28;20164;-57
2023/08/24 06:41:12;;;;;;;18.43;12.83;;;;;;;;;;4988013;28;20070;-56
2023/08/24 06:43:40;;;;;;;18.00;12.85;;;;;;;;;;5002221;28;20875;-56
2023/08/24 06:46:09;;;;;;;16.75;12.35;;;;;;;;;;5004819;28;20042;-57
2023/08/24 06:48:34;;;;;;;17.50;12.20;;;;;;;;;;5016483;23;20472;-58
2023/08/24 06:51:00;;;;;;;18.30;12.70;;;;;;;;;;4989331;28;20360;-60
2023/08/24 06:53:25;;;;;;;17.70;12.82;;;;;;;;;;4987675;28;20042;-61
2023/08/24 06:55:54;;;;;;;19.40;11.87;;;;;;;;;;4988981;28;20139;-60
2023/08/24 06:58:19;;;;;;;19.60;12.20;;;;;;;;;;4989219;28;20301;-58
2023/08/24 07:00:44;;;;;;;17.27;11.60;;;;;;;;;;4970548;28;20496;-61
2023/08/24 07:03:10;;;;;;;19.10;11.63;;;;;;;;;;4970529;28;20041;-58
2023/08/24 07:05:35;;;;;;;17.55;11.70;;;;;;;;;;4989796;28;20051;-59
2023/08/24 07:08:00;;;;;;;17.13;11.63;;;;;;;;;;4989380;28;20037;-59
2023/08/24 07:10:25;;;;;;;16.13;11.00;;;;;;;;;;4988764;28;20286;-58
2023/08/24 07:12:51;;;;;;;15.70;10.40;;;;;;;;;;5003447;28;20038;-59
2023/08/24 07:15:16;;;;;;;15.77;10.87;;;;;;;;;;4988394;28;20331;-59
2023/08/24 07:17:41;;;;;;;15.70;11.50;;;;;;;;;;4989836;28;20041;-59
2023/08/24 07:20:11;;;;;;;13.02;10.82;;;;;;;;;;4988350;28;20454;-59
2023/08/24 07:22:36;;;;;;;14.35;11.10;;;;;;;;;;5003152;28;20030;-60
2023/08/24 07:25:05;;;;;;;13.95;10.45;;;;;;;;;;4987159;28;20038;-60
2023/08/24 07:27:31;;;;;;;15.27;11.07;;;;;;;;;;4988206;28;20412;-58
2023/08/24 07:29:56;;;;;;;17.30;11.15;;;;;;;;;;4988734;28;20430;-58
2023/08/24 07:32:23;;;;;;;14.83;10.77;;;;;;;;;;4969903;28;20026;-58
2023/08/24 07:34:49;;;;;;;13.43;10.93;;;;;;;;;;4986726;28;20045;-59
2023/08/24 07:37:14;;;;;;;15.43;10.88;;;;;;;;;;4997748;28;20045;-58
2023/08/24 07:39:39;;;;;;;15.67;10.97;;;;;;;;;;5003595;28;20050;-58
2023/08/24 07:42:05;;;;;;;15.23;10.75;;;;;;;;;;5003809;28;20909;-58
2023/08/24 07:44:30;;;;;;;14.60;10.55;;;;;;;;;;5003779;28;20045;-59
2023/08/24 07:46:55;;;;;;;12.35;10.55;;;;;;;;;;4983103;28;20043;-58
2023/08/24 07:49:20;;;;;;;12.38;10.15;;;;;;;;;;4987926;28;20045;-58
2023/08/24 07:51:47;;;;;;;13.63;10.67;;;;;;;;;;4990354;28;20511;-58
2023/08/24 07:54:12;;;;;;;12.38;10.57;;;;;;;;;;4988597;28;20319;-59
2023/08/24 07:56:38;;;;;;;13.15;10.15;;;;;;;;;;4982243;28;20447;-58
2023/08/24 07:59:03;;;;;;;12.60;10.33;;;;;;;;;;4988683;28;20018;-59
2023/08/24 08:01:28;;;;;;;14.93;10.50;;;;;;;;;;5000419;28;20360;-58
2023/08/24 08:03:53;;;;;;;14.10;10.57;;;;;;;;;;5018324;28;20047;-59
2023/08/24 08:06:19;;;;;;;12.77;10.23;;;;;;;;;;5002864;28;20330;-58
2023/08/24 08:08:46;;;;;;;13.07;10.87;;;;;;;;;;4985435;28;20022;-59
2023/08/24 08:11:11;;;;;;;12.95;10.80;;;;;;;;;;5003373;28;20271;-58
2023/08/24 08:13:36;;;;;;;14.57;10.20;;;;;;;;;;5003630;28;20022;-58
2023/08/24 08:16:05;;;;;;;15.80;10.10;;;;;;;;;;4969015;28;20265;-58
2023/08/24 08:18:31;;;;;;;13.77;10.30;;;;;;;;;;5003478;28;20021;-58
2023/08/24 08:20:56;;;;;;;14.57;10.73;;;;;;;;;;5006869;28;20037;-58
2023/08/24 08:23:21;;;;;;;14.40;10.70;;;;;;;;;;4990005;28;20032;-59
2023/08/24 08:25:47;;;;;;;14.03;10.23;;;;;;;;;;5006957;28;20498;-58
2023/08/24 08:28:12;;;;;;;13.47;10.13;;;;;;;;;;4989062;28;20315;-58
2023/08/24 08:30:37;;;;;;;11.87;10.20;;;;;;;;;;5006624;28;20115;-58
2023/08/24 08:33:02;;;;;;;14.40;10.53;;;;;;;;;;4989719;28;20022;-58
2023/08/24 08:35:28;;;;;;;12.10;10.20;;;;;;;;;;5007140;28;20022;-59
2023/08/24 08:37:53;;;;;;;11.97;10.13;;;;;;;;;;5007945;28;20041;-59
2023/08/24 08:40:19;;;;;;;12.10;10.20;;;;;;;;;;5007230;28;20806;-59
2023/08/24 08:42:44;;;;;;;14.73;10.48;;;;;;;;;;5007191;28;20028;-61
2023/08/24 08:45:09;;;;;;;11.13;9.80;;;;;;;;;;5007184;28;20028;-60
2023/08/24 08:47:35;;;;;;;12.57;10.55;;;;;;;;;;5006365;28;20025;-59
2023/08/24 08:50:01;;;;;;;13.90;9.93;;;;;;;;;;5004949;28;20026;-58
2023/08/24 08:52:27;;;;;;;13.57;10.20;;;;;;;;;;4989896;28;20022;-58
2023/08/24 08:54:53;;;;;;;11.83;9.90;;;;;;;;;;4989311;28;20028;-60
2023/08/24 08:57:18;;;;;;;14.10;10.17;;;;;;;;;;5006549;28;20120;-60
2023/08/24 08:59:43;;;;;;;15.10;10.23;;;;;;;;;;4999225;28;20300;-59
2023/08/24 09:02:09;;;;;;;13.57;10.02;;;;;;;;;;5006791;28;20017;-59
2023/08/24 09:04:34;;;;;;;12.48;10.02;;;;;;;;;;5005128;28;20046;-59
2023/08/24 09:07:03;;;;;;;13.30;9.93;;;;;;;;;;4989086;28;20069;-58
2023/08/24 09:09:29;;;;;;;15.45;10.88;;;;;;;;;;5006802;28;20030;-58
2023/08/24 09:11:54;;;;;;;12.27;9.90;;;;;;;;;;5006729;28;20088;-59
2023/08/24 09:14:19;;;;;;;13.13;10.23;;;;;;;;;;4972675;28;20261;-58
2023/08/24 09:16:44;;;;;;;13.27;9.60;;;;;;;;;;5007915;28;21259;-59
2023/08/24 09:19:13;;;;;;;12.00;10.70;;;;;;;;;;4994389;28;20034;-59
2023/08/24 09:21:38;;;;;;;13.77;10.70;;;;;;;;;;4976734;28;20826;-60
2023/08/24 09:24:04;;;;;;;13.23;10.70;;;;;;;;;;4990698;28;20049;-60
2023/08/24 09:26:30;;;;;;;11.52;10.30;;;;;;;;;;4996831;28;20048;-59
2023/08/24 09:28:55;;;;;;;12.35;10.40;;;;;;;;;;4993952;28;20142;-58
2023/08/24 09:31:20;;;;;;;12.07;10.47;;;;;;;;;;4997931;28;20570;-59
2023/08/24 09:33:47;;;;;;;14.53;12.33;;;;;;;;;;5003579;28;20311;-59
2023/08/24 09:36:13;;;;;;;12.52;10.07;;;;;;;;;;4989512;28;20979;-58
2023/08/24 09:38:38;;;;;;;14.77;11.38;;;;;;;;;;4978481;28;20034;-59
2023/08/24 09:41:03;;;;;;;12.23;10.70;;;;;;;;;;5005397;28;20054;-60
2023/08/24 09:43:30;;;;;;;12.32;10.88;;;;;;;;;;4993953;28;20038;-58
2023/08/24 09:45:55;;;;;;;12.82;11.43;;;;;;;;;;4995239;28;20049;-58
2023/08/24 09:48:21;;;;;;;13.68;10.82;;;;;;;;;;4993597;28;20493;-59
2023/08/24 09:50:47;;;;;;;14.82;11.65;;;;;;;;;;5015822;28;20784;-58
2023/08/24 09:53:16;;;;;;;12.80;11.27;;;;;;;;;;4982354;28;20071;-58
2023/08/24 09:55:42;;;;;;;;;;;;;;;;;;4981415;28;20038;-58
2023/08/24 09:58:08;;;;;;;13.77;11.10;;;;;;;;;;4995541;28;19972;-58
2023/08/24 10:00:34;;;;;;;17.80;11.70;;;;;;;;;;4993099;28;20042;-58
2023/08/24 10:02:59;;;;;;;14.07;11.10;;;;;;;;;;4990866;28;20046;-58
2023/08/24 10:05:25;;;;;;;13.00;11.20;;;;;;;;;;4990084;28;20041;-58
2023/08/24 10:07:52;;;;;;;13.45;11.82;;;;;;;;;;5006780;28;20305;-59
2023/08/24 10:10:17;;;;;;;13.40;11.00;;;;;;;;;;5009856;28;20042;-58
2023/08/24 10:12:44;;;;;;;12.07;10.77;;;;;;;;;;5007106;28;20210;-58
2023/08/24 10:15:11;;;;;;;12.40;10.95;;;;;;;;;;4991947;28;20305;-58
2023/08/24 10:17:37;;;;;;;13.25;11.23;;;;;;;;;;4986296;28;20934;-59
2023/08/24 10:20:06;;;;;;;13.60;11.50;;;;;;;;;;5006146;28;20058;-58
2023/08/24 10:22:31;;;;;;;12.85;11.10;;;;;;;;;;4992642;28;20307;-59
2023/08/24 10:24:57;;;;;;;11.77;10.40;;;;;;;;;;4975699;28;20428;-59
2023/08/24 10:27:22;;;;;;;12.80;10.50;;;;;;;;;;4979084;28;20061;-62
2023/08/24 10:29:47;;;;;;;13.45;10.52;;;;;;;;;;5007994;28;20088;-58
2023/08/24 10:32:13;;;;;;;12.52;10.52;;;;;;;;;;4994752;28;20042;-59
2023/08/24 10:34:38;;;;;;;12.33;10.40;;;;;;;;;;5009447;28;20030;-59
2023/08/24 10:37:10;;;;;;;13.43;10.23;;;;;;;;;;4995249;28;20041;-59
2023/08/24 10:39:37;;;;;;;11.50;10.27;;;;;;;;;;4995218;28;20409;-59
2023/08/24 10:42:03;;;;;;;14.07;11.30;;;;;;;;;;5007773;28;20045;-59
2023/08/24 10:44:37;;;;;;;11.27;10.10;;;;;;;;;;4992829;28;20033;-59
2023/08/24 10:47:13;;;;;;;12.55;10.63;;;;;;;;;;5003912;28;20049;-59
2023/08/24 10:49:38;;;;;;;12.68;9.73;;;;;;;;;;4973086;28;20049;-58
2023/08/24 10:52:19;;;;;;;11.67;10.23;;;;;;;;;;4973928;28;20034;-58
2023/08/24 10:54:47;;;;;;;11.48;9.85;;;;;;;;;;4995111;28;20298;-61
2023/08/24 10:57:19;;;;;;;11.52;10.32;;;;;;;;;;4995726;28;20053;-58
2023/08/24 10:59:45;;;;;;;12.32;10.00;;;;;;;;;;4991495;28;20054;-60
2023/08/24 11:02:17;;;;;;;14.00;10.32;;;;;;;;;;5007861;28;20045;-58
2023/08/24 11:04:56;;;;;;;12.63;10.35;;;;;;;;;;4993213;28;20096;-59
2023/08/24 11:07:21;;;;;;;12.75;10.45;;;;;;;;;;4999540;28;20042;-58
2023/08/24 11:09:49;;;;;;;15.73;11.03;;;;;;;;;;4988905;28;20030;-58
2023/08/24 11:12:15;;;;;;;13.90;11.05;;;;;;;;;;4989410;28;20284;-59
2023/08/24 11:14:51;;;;;;;15.65;10.45;;;;;;;;;;5006215;28;20574;-57
2023/08/24 11:17:19;;;;;;;12.23;9.98;;;;;;;;;;5004516;28;20531;-60
2023/08/24 11:19:51;;;;;;;15.68;10.25;;;;;;;;;;4988294;28;20075;-59
2023/08/24 11:22:17;;;;;;;13.90;10.07;;;;;;;;;;4992554;28;20565;-59
2023/08/24 11:24:42;;;;;;;13.88;10.02;;;;;;;;;;4981537;28;20025;-58
2023/08/24 11:27:08;;;;;;;12.45;10.20;;;;;;;;;;5006128;28;20077;-58
2023/08/24 11:29:33;;;;;;;11.20;8.80;;;;;;;;;;5004951;28;20538;-58
2023/08/24 11:31:59;;;;;;;10.73;9.20;;;;;;;;;;4990976;28;20022;-59
2023/08/24 11:34:24;;;;;;;12.02;9.43;;;;;;;;;;4991340;28;20464;-58
2023/08/24 11:36:49;;;;;;;11.13;9.47;;;;;;;;;;4991008;28;20006;-58
2023/08/24 11:39:22;;;;;;;11.68;9.40;;;;;;;;;;4995004;28;20307;-58
2023/08/24 11:41:59;;;;;;;12.70;9.45;;;;;;;;;;4990024;28;20041;-59
2023/08/24 11:44:25;;;;;;;12.00;9.88;;;;;;;;;;4986014;28;20061;-58
2023/08/24 11:46:50;;;;;;;13.00;9.77;;;;;;;;;;5001666;28;20511;-58
2023/08/24 11:49:15;;;;;;;12.27;10.10;;;;;;;;;;5002271;28;20308;-60
2023/08/24 11:51:40;;;;;;;10.53;9.27;;;;;;;;;;5004828;28;20464;-58
2023/08/24 11:54:06;;;;;;;15.03;10.37;;;;;;;;;;5000735;28;20473;-58
2023/08/24 11:56:31;;;;;;;12.25;10.15;;;;;;;;;;5014767;28;20090;-58
2023/08/24 11:58:56;;;;;;;11.77;10.27;;;;;;;;;;4987749;28;20043;-61
2023/08/24 12:01:22;;;;;;;10.80;9.25;;;;;;;;;;5027289;28;20816;-59
2023/08/24 12:03:47;;;;;;;11.53;9.67;;;;;;;;;;5009251;28;20053;-59
2023/08/24 12:06:16;;;;;;;13.37;9.07;;;;;;;;;;5016697;28;20045;-58
2023/08/24 12:08:41;;;;;;;12.10;9.55;;;;;;;;;;5012082;28;20892;-59
2023/08/24 12:11:16;;;;;;;10.18;9.15;;;;;;;;;;5011180;28;20034;-58
2023/08/24 12:13:48;;;;;;;10.32;9.15;;;;;;;;;;4994536;28;20049;-59
2023/08/24 12:16:15;;;;;;;14.63;9.70;;;;;;;;;;5007773;28;20069;-59
2023/08/24 12:18:51;;;;;;;10.18;9.10;;;;;;;;;;4993510;28;20802;-58
2023/08/24 12:21:16;;;;;;;10.93;9.30;;;;;;;;;;4996661;28;20561;-59
2023/08/24 12:23:41;;;;;;;11.18;9.05;;;;;;;;;;4995009;28;20022;-60
2023/08/24 12:26:07;;;;;;;11.25;8.77;;;;;;;;;;5015190;28;20069;-60
2023/08/24 12:28:33;;;;;;;12.57;9.27;;;;;;;;;;4987438;28;20820;-57
2023/08/24 12:31:01;;;;;;;14.32;9.50;;;;;;;;;;4989402;28;20062;-59
2023/08/24 12:33:31;;;;;;;10.95;8.88;;;;;;;;;;4989733;28;20029;-59
2023/08/24 12:35:56;;;;;;;11.45;8.77;;;;;;;;;;5012937;28;20097;-58
2023/08/24 12:38:22;;;;;;;12.00;8.93;;;;;;;;;;4996715;28;20038;-59
2023/08/24 12:40:47;;;;;;;10.43;9.07;;;;;;;;;;4994990;28;20053;-57
2023/08/24 12:43:12;;;;;;;9.85;8.85;;;;;;;;;;5011178;28;20037;-58
2023/08/24 12:45:38;;;;;;;10.20;8.47;;;;;;;;;;4993377;28;20039;-60
2023/08/24 12:48:04;;;;;;;11.35;9.10;;;;;;;;;;5006634;28;21217;-60
2023/08/24 12:50:29;;;;;;;9.88;8.38;;;;;;;;;;5001668;28;20037;-58
2023/08/24 12:52:55;;;;;;;11.50;9.00;;;;;;;;;;5006691;28;20129;-58
2023/08/24 12:55:20;;;;;;;10.93;8.70;;;;;;;;;;5008051;28;20864;-57
2023/08/24 12:57:46;;;;;;;10.38;8.60;;;;;;;;;;5009519;28;20044;-60
2023/08/24 13:00:12;;;;;;;10.70;8.52;;;;;;;;;;5005729;28;20049;-58
2023/08/24 13:02:37;;;;;;;11.50;9.07;;;;;;;;;;5014252;28;20439;-58
2023/08/24 13:05:04;;;;;;;10.37;8.60;;;;;;;;;;5023107;28;20033;-58
2023/08/24 13:07:29;;;;;;;9.57;8.40;;;;;;;;;;5012945;28;20289;-57
2023/08/24 13:09:54;;;;;;;9.80;8.80;;;;;;;;;;5007137;28;20104;-58
2023/08/24 13:12:19;;;;;;;9.77;8.77;;;;;;;;;;5006479;28;20295;-59
2023/08/24 13:14:44;;;;;;;9.73;8.57;;;;;;;;;;5006600;28;20084;-59
2023/08/24 13:17:10;;;;;;;12.07;9.33;;;;;;;;;;5012740;28;20467;-58
2023/08/24 13:19:35;;;;;;;11.10;9.00;;;;;;;;;;5011487;28;21037;-58
2023/08/24 13:22:00;;;;;;;9.70;8.70;;;;;;;;;;5005281;28;20100;-60
2023/08/24 13:24:25;;;;;;;10.88;9.07;;;;;;;;;;4988549;28;20042;-58
2023/08/24 13:26:51;;;;;;;13.37;8.93;;;;;;;;;;5006480;28;20842;-59
2023/08/24 13:29:16;;;;;;;13.47;9.53;;;;;;;;;;5003497;28;20297;-62
2023/08/24 13:31:41;;;;;;;13.70;9.27;;;;;;;;;;4992161;28;20044;-58
2023/08/24 13:34:08;;;;;;;13.82;9.90;;;;;;;;;;4987922;28;20346;-59
2023/08/24 13:36:33;;;;;;;13.02;9.60;;;;;;;;;;5005428;28;20049;-58
2023/08/24 13:38:58;;;;;;;11.43;9.35;;;;;;;;;;5010023;28;20030;-58
2023/08/24 13:41:24;;;;;;;14.43;8.82;;;;;;;;;;4997355;28;20041;-58
2023/08/24 13:43:49;;;;;;;14.37;9.83;;;;;;;;;;5005724;28;20191;-60
2023/08/24 13:46:14;;;;;;;12.27;9.30;;;;;;;;;;5012209;28;20080;-60
2023/08/24 13:48:39;;;;;;;14.57;9.97;;;;;;;;;;4987736;28;20285;-59
2023/08/24 13:51:05;;;;;;;11.73;9.43;;;;;;;;;;5020884;28;20046;-59
2023/08/24 13:53:30;;;;;;;13.73;9.73;;;;;;;;;;5014641;28;20347;-58
2023/08/24 13:55:55;;;;;;;12.03;9.10;;;;;;;;;;4986864;28;20298;-59
2023/08/24 13:58:20;;;;;;;13.90;9.90;;;;;;;;;;5017584;28;20760;-59
2023/08/24 14:00:45;;;;;;;12.73;9.07;;;;;;;;;;5009463;28;20128;-61
2023/08/24 14:03:11;;;;;;;11.90;9.37;;;;;;;;;;5013831;28;20042;-59
2023/08/24 14:05:39;;;;;;;12.70;9.23;;;;;;;;;;4995025;28;20034;-59
2023/08/24 14:08:05;;;;;;;10.43;9.00;;;;;;;;;;4996781;28;20471;-59
2023/08/24 14:10:31;;;;;;;11.13;9.30;;;;;;;;;;5019744;28;20116;-57
2023/08/24 14:12:56;;;;;;;12.55;9.45;;;;;;;;;;5015352;28;20108;-58